Time;durP1;ratioP1;P1;durP2;ratioP2;P2;SDS_P1;SDS_P2;PMS_P1;PMS_P2;Temp;Humidity;BMP_temperature;BMP_pressure;BME280_temperature;BME280_humidity;BME280_pressure;Samples;Min_cycle;Max_cycle;Signal;HPM_P1;HPM_P2
2023/07/20 00:00:05;;;;;;;2.67;2.05;;;15.10;86.70;;;;;;5051559;28;20512;-74
2023/07/20 00:02:31;;;;;;;2.75;2.30;;;15.10;86.90;;;;;;5051362;28;20053;-74
2023/07/20 00:04:57;;;;;;;5.07;2.45;;;15.00;86.90;;;;;;5051213;28;20068;-74
2023/07/20 00:07:23;;;;;;;2.70;2.28;;;15.00;86.80;;;;;;5051215;28;20118;-73
2023/07/20 00:09:49;;;;;;;3.30;2.90;;;15.00;86.80;;;;;;5051161;28;20124;-74
2023/07/20 00:12:14;;;;;;;3.13;2.33;;;15.00;86.80;;;;;;5051251;28;20120;-74
2023/07/20 00:14:40;;;;;;;3.05;2.50;;;14.90;86.80;;;;;;5051150;28;20049;-74
2023/07/20 00:17:06;;;;;;;3.55;2.58;;;14.90;86.90;;;;;;5051159;28;20041;-74
2023/07/20 00:19:32;;;;;;;3.45;2.70;;;14.80;86.90;;;;;;5051002;28;20045;-74
2023/07/20 00:21:58;;;;;;;3.08;2.55;;;14.90;87.00;;;;;;5054147;28;20049;-75
2023/07/20 00:24:23;;;;;;;6.50;3.05;;;14.90;87.00;;;;;;5054819;28;20062;-73
2023/07/20 00:26:49;;;;;;;4.40;3.22;;;14.80;87.20;;;;;;5054838;28;20045;-74
2023/07/20 00:29:15;;;;;;;5.53;2.83;;;14.70;87.20;;;;;;5038172;28;20049;-73
2023/07/20 00:31:42;;;;;;;7.97;3.20;;;14.80;87.20;;;;;;5054759;28;20126;-74
2023/07/20 00:34:07;;;;;;;3.50;3.20;;;14.70;87.30;;;;;;5054627;28;20095;-74
2023/07/20 00:36:33;;;;;;;7.03;3.25;;;14.70;87.30;;;;;;5054703;28;20045;-74
2023/07/20 00:38:59;;;;;;;7.65;3.30;;;14.60;87.40;;;;;;5054473;28;20412;-74
2023/07/20 00:41:29;;;;;;;3.97;3.05;;;14.60;87.40;;;;;;5054570;28;20124;-74
2023/07/20 00:43:55;;;;;;;2.78;2.58;;;14.60;87.50;;;;;;5054721;28;20101;-74
2023/07/20 00:46:24;;;;;;;4.30;3.45;;;14.60;87.50;;;;;;5054770;28;20064;-74
2023/07/20 00:48:50;;;;;;;5.30;3.15;;;14.50;87.40;;;;;;5054328;28;20041;-74
2023/07/20 00:51:16;;;;;;;5.10;3.50;;;14.50;87.40;;;;;;5054374;28;20037;-74
2023/07/20 00:53:41;;;;;;;4.40;3.15;;;14.50;87.50;;;;;;5054377;28;20051;-74
2023/07/20 00:56:08;;;;;;;3.50;3.08;;;14.50;87.50;;;;;;5037742;28;20044;-74
2023/07/20 00:58:35;;;;;;;4.00;3.13;;;14.40;87.50;;;;;;5054552;28;20124;-74
2023/07/20 01:01:01;;;;;;;4.32;3.47;;;14.40;87.50;;;;;;5037707;28;20105;-74
2023/07/20 01:03:26;;;;;;;5.18;3.20;;;14.40;87.50;;;;;;5054106;28;20045;-74
2023/07/20 01:06:10;;;;;;;4.00;3.58;;;14.30;87.60;;;;;;5054256;28;20132;-74
2023/07/20 01:08:41;;;;;;;6.32;3.65;;;14.30;87.60;;;;;;5054323;28;20063;-74
2023/07/20 01:11:16;;;;;;;3.92;3.53;;;14.20;87.70;;;;;;5054062;28;20064;-74
2023/07/20 01:13:43;;;;;;;3.80;3.28;;;14.20;87.70;;;;;;5053869;28;20547;-74
2023/07/20 01:16:09;;;;;;;3.97;3.08;;;14.20;87.70;;;;;;5037546;28;20037;-74
2023/07/20 01:18:35;;;;;;;3.13;2.83;;;14.10;87.70;;;;;;5053939;28;20409;-73
2023/07/20 01:21:09;;;;;;;5.32;3.47;;;14.10;87.70;;;;;;5053868;28;20064;-73
2023/07/20 01:24:01;;;;;;;4.00;3.60;;;14.10;87.70;;;;;;5053755;28;20052;-73
2023/07/20 01:26:44;;;;;;;3.92;3.55;;;14.10;87.80;;;;;;5045915;28;20054;-73
2023/07/20 01:29:21;;;;;;;5.82;3.13;;;14.10;87.70;;;;;;5053683;28;20064;-73
2023/07/20 01:31:51;;;;;;;3.47;2.92;;;14.10;87.70;;;;;;5053582;28;20032;-73
2023/07/20 01:34:19;;;;;;;5.13;3.50;;;14.00;87.70;;;;;;5036554;28;20041;-73
2023/07/20 01:36:48;;;;;;;4.18;3.80;;;14.00;87.70;;;;;;5053526;28;20553;-73
2023/07/20 01:39:14;;;;;;;4.53;3.90;;;14.00;87.70;;;;;;5053448;28;20462;-74
2023/07/20 01:41:40;;;;;;;4.82;3.45;;;13.90;87.80;;;;;;5053536;28;20052;-74
2023/07/20 01:44:06;;;;;;;6.18;3.63;;;13.90;87.80;;;;;;5053309;28;20382;-74
2023/07/20 01:46:31;;;;;;;3.92;3.53;;;13.90;87.90;;;;;;5020720;28;20045;-73
2023/07/20 01:48:57;;;;;;;4.32;3.30;;;13.80;87.80;;;;;;5053264;28;20495;-73
2023/07/20 01:51:23;;;;;;;4.45;4.03;;;13.70;88.00;;;;;;5053258;28;20052;-74
2023/07/20 01:53:49;;;;;;;3.78;3.47;;;13.70;88.00;;;;;;5036523;28;20076;-74
2023/07/20 01:56:14;;;;;;;6.57;3.63;;;13.60;88.00;;;;;;5053339;28;20075;-74
2023/07/20 01:58:40;;;;;;;4.07;3.67;;;13.60;88.10;;;;;;5053433;28;20043;-74
2023/07/20 02:01:06;;;;;;;6.70;4.15;;;13.50;88.20;;;;;;5053086;28;20044;-73
2023/07/20 02:03:32;;;;;;;4.20;3.20;;;13.50;88.10;;;;;;5053080;28;20045;-73
2023/07/20 02:05:57;;;;;;;6.57;3.70;;;13.50;88.10;;;;;;5052905;28;20041;-74
2023/07/20 02:08:23;;;;;;;6.35;3.55;;;13.50;88.10;;;;;;5052892;28;20133;-74
2023/07/20 02:10:49;;;;;;;5.38;4.00;;;13.50;88.20;;;;;;5053148;28;20041;-73
2023/07/20 02:13:15;;;;;;;3.88;3.58;;;13.50;88.20;;;;;;5052765;28;20048;-73
2023/07/20 02:15:42;;;;;;;5.25;3.80;;;13.40;88.20;;;;;;5036267;28;20079;-72
2023/07/20 02:18:08;;;;;;;7.43;4.10;;;13.30;88.30;;;;;;5052971;28;20041;-73
2023/07/20 02:20:35;;;;;;;5.93;4.13;;;13.30;88.50;;;;;;5052620;28;20547;-73
2023/07/20 02:23:00;;;;;;;4.13;3.75;;;13.30;88.60;;;;;;5052963;28;20075;-73
2023/07/20 02:25:26;;;;;;;4.45;3.65;;;13.30;88.60;;;;;;5052874;28;20501;-73
2023/07/20 02:27:52;;;;;;;5.00;4.38;;;13.30;88.60;;;;;;5036004;28;20488;-73
2023/07/20 02:30:18;;;;;;;5.22;3.45;;;13.30;88.60;;;;;;5052543;28;20048;-73
2023/07/20 02:32:48;;;;;;;4.75;3.63;;;13.30;88.80;;;;;;5052365;28;20456;-73
2023/07/20 02:35:14;;;;;;;4.80;3.40;;;13.30;88.90;;;;;;5052405;28;20048;-73
2023/07/20 02:37:40;;;;;;;4.18;3.38;;;13.30;88.70;;;;;;5035952;28;20124;-73
2023/07/20 02:40:07;;;;;;;3.88;3.22;;;13.30;88.70;;;;;;5052176;28;20131;-73
2023/07/20 02:42:33;;;;;;;3.63;3.13;;;13.30;88.70;;;;;;5052267;28;20105;-73
2023/07/20 02:44:59;;;;;;;4.20;3.67;;;13.30;88.60;;;;;;5034499;28;20086;-73
2023/07/20 02:47:25;;;;;;;5.55;3.20;;;13.30;88.60;;;;;;5052252;28;20048;-73
2023/07/20 02:49:50;;;;;;;4.85;3.80;;;13.30;88.60;;;;;;5052175;28;20056;-73
2023/07/20 02:52:16;;;;;;;6.90;3.72;;;13.20;88.50;;;;;;5052232;28;20500;-73
2023/07/20 02:54:42;;;;;;;4.10;3.00;;;13.30;88.40;;;;;;5052039;28;20041;-73
2023/07/20 02:57:08;;;;;;;4.43;2.83;;;13.20;88.40;;;;;;5052083;28;20095;-73
2023/07/20 02:59:33;;;;;;;3.83;3.40;;;13.30;88.50;;;;;;5052070;28;20114;-73
2023/07/20 03:01:59;;;;;;;8.93;3.22;;;13.20;88.50;;;;;;5052295;28;20044;-73
2023/07/20 03:04:28;;;;;;;4.38;3.05;;;13.20;88.60;;;;;;5051930;28;20489;-73
2023/07/20 03:06:53;;;;;;;3.33;3.03;;;13.20;88.50;;;;;;5051877;28;20072;-73
2023/07/20 03:09:19;;;;;;;5.10;3.13;;;13.20;88.40;;;;;;5051958;28;20083;-73
2023/07/20 03:11:45;;;;;;;6.68;3.60;;;13.10;88.50;;;;;;5051914;28;20396;-73
2023/07/20 03:14:11;;;;;;;5.78;3.67;;;13.10;88.60;;;;;;5035149;28;20037;-73
2023/07/20 03:16:37;;;;;;;7.07;4.00;;;13.10;88.60;;;;;;5052036;28;20045;-73
2023/07/20 03:19:03;;;;;;;9.15;4.22;;;13.00;88.70;;;;;;5018884;28;20436;-73
2023/07/20 03:21:29;;;;;;;3.80;3.45;;;13.00;88.70;;;;;;5035217;28;20120;-73
2023/07/20 03:23:54;;;;;;;5.95;3.72;;;12.90;88.60;;;;;;5035207;28;20131;-73
2023/07/20 03:26:20;;;;;;;4.53;4.00;;;12.80;88.50;;;;;;5051086;28;20119;-73
2023/07/20 03:28:46;;;;;;;6.05;4.32;;;12.70;88.60;;;;;;5051147;28;20122;-73
2023/07/20 03:31:12;;;;;;;4.30;3.60;;;12.70;88.80;;;;;;5035875;28;20102;-73
2023/07/20 03:33:38;;;;;;;3.83;3.53;;;12.60;88.70;;;;;;5030873;28;20116;-73
2023/07/20 03:36:04;;;;;;;5.63;3.40;;;12.60;88.70;;;;;;5031068;28;20045;-73
2023/07/20 03:38:30;;;;;;;5.55;3.95;;;12.60;88.80;;;;;;5031195;28;20049;-73
2023/07/20 03:40:58;;;;;;;6.57;4.28;;;12.60;88.70;;;;;;5031359;28;20136;-73
2023/07/20 03:43:25;;;;;;;6.43;3.90;;;12.60;88.70;;;;;;5031507;28;20085;-73
2023/07/20 03:45:51;;;;;;;10.95;3.72;;;12.60;88.70;;;;;;5015495;28;20128;-73
2023/07/20 03:48:22;;;;;;;5.00;3.70;;;12.60;88.70;;;;;;5031709;28;20041;-73
2023/07/20 03:50:50;;;;;;;6.05;4.30;;;12.60;88.80;;;;;;5031801;28;20041;-73
2023/07/20 03:53:17;;;;;;;6.00;3.33;;;12.60;88.90;;;;;;5031785;28;20034;-73
2023/07/20 03:55:46;;;;;;;4.82;4.00;;;12.60;88.80;;;;;;5032225;28;20508;-73
2023/07/20 03:58:13;;;;;;;5.82;3.85;;;12.60;88.80;;;;;;5035558;28;20045;-73
2023/07/20 04:00:39;;;;;;;8.70;4.00;;;12.70;88.70;;;;;;5035385;28;20051;-73
2023/07/20 04:03:05;;;;;;;5.90;4.05;;;12.70;88.80;;;;;;5035401;28;20045;-73
2023/07/20 04:05:31;;;;;;;7.10;4.10;;;12.70;88.80;;;;;;5018910;28;20044;-73
2023/07/20 04:07:57;;;;;;;5.45;4.20;;;12.70;88.90;;;;;;5036556;28;20049;-73
2023/07/20 04:10:22;;;;;;;6.22;3.78;;;12.60;89.00;;;;;;5036545;28;20131;-73
2023/07/20 04:12:48;;;;;;;4.97;4.00;;;12.60;89.10;;;;;;5035218;28;20041;-73
2023/07/20 04:15:14;;;;;;;7.07;3.75;;;12.60;89.00;;;;;;5035257;28;20045;-73
2023/07/20 04:17:41;;;;;;;7.50;4.07;;;12.60;89.00;;;;;;5035169;28;20041;-73
2023/07/20 04:20:07;;;;;;;4.25;3.85;;;12.60;89.00;;;;;;5035391;28;20049;-73
2023/07/20 04:22:34;;;;;;;6.63;3.58;;;12.70;89.00;;;;;;5018781;28;20041;-73
2023/07/20 04:24:59;;;;;;;4.70;3.58;;;12.70;89.00;;;;;;5035294;28;20448;-73
2023/07/20 04:27:26;;;;;;;6.57;3.53;;;12.70;89.10;;;;;;5035057;28;20041;-73
2023/07/20 04:29:52;;;;;;;4.57;4.00;;;12.70;88.90;;;;;;5018412;28;20049;-73
2023/07/20 04:32:17;;;;;;;6.10;3.70;;;12.80;88.90;;;;;;5018685;28;20115;-73
2023/07/20 04:34:43;;;;;;;4.28;3.17;;;12.80;88.90;;;;;;5034786;28;20470;-73
2023/07/20 04:37:09;;;;;;;6.35;3.72;;;12.80;88.90;;;;;;5018387;28;20045;-73
2023/07/20 04:39:35;;;;;;;3.95;3.53;;;12.80;89.00;;;;;;5034739;28;20065;-73
2023/07/20 04:42:00;;;;;;;6.45;3.45;;;12.80;89.10;;;;;;5034688;28;20080;-73
2023/07/20 04:44:26;;;;;;;6.60;4.68;;;12.80;89.00;;;;;;5034723;28;20048;-73
2023/07/20 04:46:52;;;;;;;5.00;3.05;;;12.90;89.10;;;;;;5034844;28;20524;-73
2023/07/20 04:49:18;;;;;;;3.90;3.50;;;12.90;89.20;;;;;;5034675;28;20041;-73
2023/07/20 04:51:43;;;;;;;3.80;2.55;;;13.00;89.10;;;;;;5034762;28;20436;-73
2023/07/20 04:54:09;;;;;;;4.47;3.15;;;13.00;89.00;;;;;;5034358;28;20507;-73
2023/07/20 04:56:35;;;;;;;5.18;3.10;;;13.10;89.00;;;;;;5034678;28;20053;-73
2023/07/20 04:59:00;;;;;;;5.70;3.17;;;13.20;88.90;;;;;;5034299;28;20414;-73
2023/07/20 05:01:26;;;;;;;6.00;2.97;;;13.30;88.90;;;;;;5034604;28;20045;-74
2023/07/20 05:03:52;;;;;;;6.85;3.60;;;13.40;88.90;;;;;;5034256;28;20048;-73
2023/07/20 05:06:18;;;;;;;4.45;3.15;;;13.40;88.90;;;;;;5034499;28;20212;-76
2023/07/20 05:08:44;;;;;;;9.15;3.40;;;13.50;88.90;;;;;;5016799;28;20474;-75
2023/07/20 05:11:11;;;;;;;6.40;3.53;;;13.50;88.90;;;;;;5034196;28;20080;-73
2023/07/20 05:13:38;;;;;;;7.57;3.85;;;13.60;88.70;;;;;;5034285;28;20125;-74
2023/07/20 05:16:04;;;;;;;3.17;2.80;;;13.70;88.80;;;;;;5034077;28;20568;-75
2023/07/20 05:18:30;;;;;;;3.95;3.45;;;13.80;88.90;;;;;;5048244;28;20029;-75
2023/07/20 05:20:55;;;;;;;4.93;3.05;;;13.80;88.70;;;;;;5053831;28;20447;-75
2023/07/20 05:23:21;;;;;;;3.53;3.22;;;13.90;88.70;;;;;;5054030;28;20040;-75
2023/07/20 05:25:53;;;;;;;5.45;3.00;;;14.00;88.60;;;;;;5053817;28;20120;-75
2023/07/20 05:28:19;;;;;;;6.57;3.38;;;14.00;88.80;;;;;;5053987;28;20481;-76
2023/07/20 05:30:45;;;;;;;3.30;2.22;;;14.10;88.80;;;;;;5037138;28;20178;-76
2023/07/20 05:33:11;;;;;;;4.78;3.58;;;14.10;88.70;;;;;;5037146;28;20045;-76
2023/07/20 05:35:37;;;;;;;6.82;3.33;;;14.20;88.50;;;;;;5037051;28;20048;-75
2023/07/20 05:38:04;;;;;;;3.55;2.97;;;14.30;88.30;;;;;;5053540;28;20269;-74
2023/07/20 05:40:30;;;;;;;6.18;2.97;;;14.40;88.30;;;;;;5036933;28;20072;-75
2023/07/20 05:42:56;;;;;;;5.78;3.35;;;14.50;88.20;;;;;;5053387;28;20053;-75
2023/07/20 05:45:22;;;;;;;5.88;3.55;;;14.50;88.10;;;;;;5053707;28;20037;-74
2023/07/20 05:47:48;;;;;;;5.07;3.38;;;14.60;88.20;;;;;;5053387;28;20485;-74
2023/07/20 05:50:14;;;;;;;6.07;3.28;;;14.60;88.20;;;;;;5053300;28;20063;-74
2023/07/20 05:52:40;;;;;;;5.28;2.90;;;14.70;88.00;;;;;;5053182;28;20143;-75
2023/07/20 05:55:06;;;;;;;3.42;2.40;;;14.90;88.00;;;;;;5053216;28;20041;-76
2023/07/20 05:57:32;;;;;;;3.03;2.72;;;15.00;87.80;;;;;;5053171;28;20090;-76
2023/07/20 05:59:58;;;;;;;4.30;3.03;;;15.00;87.50;;;;;;5053158;28;20045;-75
2023/07/20 06:02:24;;;;;;;3.22;1.65;;;15.10;87.30;;;;;;5053222;28;20045;-74
2023/07/20 06:04:49;;;;;;;4.32;2.80;;;15.20;87.10;;;;;;5052994;28;20081;-75
2023/07/20 06:07:15;;;;;;;5.50;2.50;;;15.30;86.80;;;;;;5053111;28;20399;-75
2023/07/20 06:09:41;;;;;;;6.40;2.83;;;15.40;86.60;;;;;;5052880;28;20041;-75
2023/07/20 06:12:07;;;;;;;4.55;2.10;;;15.40;86.40;;;;;;5019782;28;20059;-74
2023/07/20 06:14:33;;;;;;;4.90;2.55;;;15.50;86.30;;;;;;5036212;28;20041;-75
2023/07/20 06:16:59;;;;;;;6.75;2.17;;;15.60;86.00;;;;;;5053132;28;20032;-75
2023/07/20 06:19:25;;;;;;;7.05;2.60;;;15.70;85.80;;;;;;5052518;28;20503;-75
2023/07/20 06:21:50;;;;;;;3.58;2.00;;;15.80;85.40;;;;;;5052798;28;20044;-75
2023/07/20 06:24:19;;;;;;;2.30;1.60;;;15.90;85.30;;;;;;5036006;28;20045;-76
2023/07/20 06:26:45;;;;;;;10.05;1.85;;;15.90;85.20;;;;;;5035477;28;20142;-76
2023/07/20 06:29:11;;;;;;;2.25;1.23;;;16.00;84.70;;;;;;5052468;28;20091;-76
2023/07/20 06:31:37;;;;;;;4.18;1.30;;;16.10;84.10;;;;;;5053010;28;20037;-76
2023/07/20 06:34:03;;;;;;;2.33;0.80;;;16.20;83.40;;;;;;5052808;28;20497;-75
2023/07/20 06:36:29;;;;;;;3.90;1.38;;;16.30;82.60;;;;;;5053181;28;20037;-75
2023/07/20 06:38:56;;;;;;;5.85;1.15;;;16.30;81.00;;;;;;5052954;28;20094;-76
2023/07/20 06:41:22;;;;;;;3.92;1.17;;;16.40;80.00;;;;;;5052778;28;20059;-77
2023/07/20 06:43:48;;;;;;;3.35;1.10;;;16.40;79.30;;;;;;5052844;28;20052;-75
2023/07/20 06:46:14;;;;;;;5.68;1.77;;;16.50;78.90;;;;;;5036062;28;20048;-75
2023/07/20 06:48:39;;;;;;;2.80;1.30;;;16.60;77.90;;;;;;5036161;28;20045;-76
2023/07/20 06:51:05;;;;;;;3.25;1.60;;;16.70;77.70;;;;;;5052817;28;20037;-75
2023/07/20 06:53:31;;;;;;;4.07;1.33;;;16.70;77.20;;;;;;5052747;28;20390;-75
2023/07/20 06:55:57;;;;;;;1.65;1.23;;;16.80;77.00;;;;;;5052662;28;20037;-77
2023/07/20 06:58:26;;;;;;;6.53;1.55;;;16.80;76.60;;;;;;5052620;28;20037;-76
2023/07/20 07:00:52;;;;;;;5.50;2.08;;;16.80;76.30;;;;;;5052687;28;20041;-76
2023/07/20 07:03:18;;;;;;;3.65;1.45;;;16.90;75.60;;;;;;5052596;28;20048;-74
2023/07/20 07:05:47;;;;;;;2.97;1.77;;;17.00;74.90;;;;;;5043538;28;20533;-75
2023/07/20 07:08:13;;;;;;;3.13;1.90;;;17.00;75.00;;;;;;5024727;28;20051;-75
2023/07/20 07:10:38;;;;;;;4.28;2.10;;;17.20;75.00;;;;;;5035841;28;20045;-77
2023/07/20 07:13:04;;;;;;;3.05;1.65;;;17.20;74.60;;;;;;5052629;28;20051;-77
2023/07/20 07:15:30;;;;;;;3.47;1.80;;;17.20;73.70;;;;;;5052226;28;20401;-74
2023/07/20 07:17:56;;;;;;;6.60;2.47;;;17.20;73.40;;;;;;5052209;28;20044;-76
2023/07/20 07:20:23;;;;;;;3.85;1.95;;;17.20;73.70;;;;;;5035631;28;20123;-76
2023/07/20 07:22:50;;;;;;;5.13;2.28;;;17.20;73.70;;;;;;5041006;28;20045;-75
2023/07/20 07:25:16;;;;;;;3.92;1.73;;;17.20;72.90;;;;;;5032153;28;20049;-76
2023/07/20 07:27:42;;;;;;;4.60;1.73;;;17.30;71.90;;;;;;5015875;28;20051;-76
2023/07/20 07:30:08;;;;;;;3.42;1.75;;;17.40;71.20;;;;;;5031283;28;20041;-76
2023/07/20 07:32:33;;;;;;;5.72;2.10;;;17.30;71.30;;;;;;5031611;28;20033;-75
2023/07/20 07:35:00;;;;;;;2.70;1.77;;;17.40;70.90;;;;;;5032019;28;20042;-76
2023/07/20 07:37:26;;;;;;;3.67;1.60;;;17.50;70.80;;;;;;4983117;28;20049;-74
2023/07/20 07:39:51;;;;;;;2.22;1.67;;;17.50;70.70;;;;;;5031592;28;20045;-73
2023/07/20 07:42:18;;;;;;;3.75;1.63;;;17.60;68.90;;;;;;5031775;28;20088;-73
2023/07/20 07:44:44;;;;;;;4.07;2.05;;;17.70;68.20;;;;;;5031839;28;20385;-73
2023/07/20 07:47:10;;;;;;;4.32;1.60;;;17.70;67.50;;;;;;5031994;28;20184;-73
2023/07/20 07:49:36;;;;;;;6.03;2.15;;;17.80;67.80;;;;;;5031442;28;20477;-73
2023/07/20 07:52:04;;;;;;;5.10;2.05;;;17.80;67.90;;;;;;5031549;28;20094;-73
2023/07/20 07:54:30;;;;;;;3.40;2.17;;;17.90;68.30;;;;;;5031860;28;20045;-73
2023/07/20 07:56:56;;;;;;;3.47;2.13;;;18.00;68.70;;;;;;5031435;28;20474;-73
2023/07/20 07:59:22;;;;;;;5.93;2.50;;;18.10;67.70;;;;;;5031411;28;20081;-73
2023/07/20 08:01:48;;;;;;;4.47;2.08;;;18.20;68.00;;;;;;5031538;28;20041;-73
2023/07/20 08:04:14;;;;;;;3.92;1.65;;;18.30;68.10;;;;;;5031428;28;20044;-73
2023/07/20 08:06:40;;;;;;;5.25;2.20;;;18.40;67.30;;;;;;5031692;28;20386;-73
2023/07/20 08:09:05;;;;;;;3.40;2.17;;;18.40;67.20;;;;;;5031210;28;20482;-73
2023/07/20 08:11:33;;;;;;;3.95;2.10;;;18.40;67.50;;;;;;5015025;28;20043;-73
2023/07/20 08:14:00;;;;;;;3.75;2.10;;;18.50;68.20;;;;;;5031656;28;20389;-73
2023/07/20 08:16:26;;;;;;;4.00;2.03;;;18.50;67.90;;;;;;5031687;28;20087;-73
2023/07/20 08:18:52;;;;;;;5.80;2.35;;;18.50;68.00;;;;;;5031288;28;20128;-73
2023/07/20 08:21:18;;;;;;;3.83;2.30;;;18.30;68.40;;;;;;5031257;28;20120;-73
2023/07/20 08:23:44;;;;;;;5.80;2.80;;;18.20;69.10;;;;;;5031575;28;20088;-73
2023/07/20 08:26:09;;;;;;;6.55;2.92;;;18.20;69.20;;;;;;5031522;28;20469;-73
2023/07/20 08:28:35;;;;;;;5.60;2.75;;;18.30;69.30;;;;;;5031188;28;20409;-74
2023/07/20 08:31:02;;;;;;;4.05;1.98;;;18.50;68.70;;;;;;5031483;28;20080;-74
2023/07/20 08:33:29;;;;;;;4.57;2.10;;;18.70;68.00;;;;;;5031452;28;20367;-74
2023/07/20 08:35:56;;;;;;;4.30;2.10;;;18.90;67.60;;;;;;5031428;28;20085;-74
2023/07/20 08:38:22;;;;;;;7.25;2.63;;;19.00;66.50;;;;;;5031036;28;20045;-74
2023/07/20 08:40:47;;;;;;;7.60;2.85;;;18.90;66.70;;;;;;5031027;28;20119;-74
2023/07/20 08:43:16;;;;;;;5.80;2.58;;;18.90;66.60;;;;;;5034544;28;20393;-74
2023/07/20 08:45:44;;;;;;;6.22;2.40;;;18.90;67.00;;;;;;5034651;28;20041;-74
2023/07/20 08:48:11;;;;;;;9.02;2.60;;;18.80;67.70;;;;;;5034579;28;20048;-74
2023/07/20 08:50:38;;;;;;;8.23;2.75;;;18.60;68.10;;;;;;5034471;28;20124;-74
2023/07/20 08:53:05;;;;;;;3.80;1.95;;;18.50;67.90;;;;;;5034530;28;20037;-74
2023/07/20 08:55:33;;;;;;;7.90;2.15;;;18.60;68.30;;;;;;5034740;28;20045;-74
2023/07/20 08:58:02;;;;;;;5.90;2.00;;;18.70;68.00;;;;;;5034370;28;20091;-74
2023/07/20 09:00:29;;;;;;;6.35;2.15;;;19.00;67.50;;;;;;5034215;28;20042;-74
2023/07/20 09:02:55;;;;;;;8.20;2.03;;;19.30;67.00;;;;;;5034300;28;20046;-74
2023/07/20 09:05:23;;;;;;;6.40;2.00;;;19.50;66.70;;;;;;5034334;28;20048;-74
2023/07/20 09:07:49;;;;;;;5.88;1.92;;;19.50;67.10;;;;;;5034189;28;20512;-74
2023/07/20 09:10:15;;;;;;;5.18;2.08;;;19.50;67.00;;;;;;5017643;28;20041;-74
2023/07/20 09:12:43;;;;;;;7.40;3.00;;;19.40;67.10;;;;;;5034183;28;20116;-74
2023/07/20 09:15:10;;;;;;;7.50;1.73;;;19.60;66.60;;;;;;5017585;28;20041;-74
2023/07/20 09:17:37;;;;;;;3.17;1.60;;;19.90;65.60;;;;;;5034098;28;20046;-74
2023/07/20 09:20:11;;;;;;;6.10;2.00;;;20.00;65.10;;;;;;5033999;28;20045;-74
2023/07/20 09:22:39;;;;;;;4.50;1.50;;;20.10;63.40;;;;;;5034109;28;20048;-74
2023/07/20 09:25:15;;;;;;;5.50;1.75;;;20.10;62.90;;;;;;5034199;28;20060;-74
2023/07/20 09:27:46;;;;;;;5.32;1.63;;;20.00;63.00;;;;;;5034206;28;20049;-74
2023/07/20 09:30:14;;;;;;;3.35;1.55;;;19.70;63.60;;;;;;5033773;28;20056;-74
2023/07/20 09:32:45;;;;;;;7.65;2.17;;;19.50;63.80;;;;;;5034297;28;20452;-74
2023/07/20 09:35:15;;;;;;;3.38;1.33;;;19.30;64.40;;;;;;5017254;28;20046;-74
2023/07/20 09:38:11;;;;;;;4.28;1.80;;;19.40;64.60;;;;;;5033723;28;20132;-74
2023/07/20 09:40:40;;;;;;;5.22;1.50;;;19.60;64.30;;;;;;5029111;28;20085;-74
2023/07/20 09:43:10;;;;;;;3.60;1.63;;;19.90;64.30;;;;;;5033648;28;20037;-74
2023/07/20 09:45:41;;;;;;;3.03;1.30;;;20.20;63.10;;;;;;5033548;28;20041;-74
2023/07/20 09:48:08;;;;;;;5.10;1.98;;;20.40;61.30;;;;;;5033806;28;20367;-74
2023/07/20 09:50:39;;;;;;;5.38;2.22;;;20.50;60.20;;;;;;5033435;28;20120;-74
2023/07/20 09:53:05;;;;;;;2.95;1.40;;;20.70;60.10;;;;;;5033106;28;20095;-74
2023/07/20 09:55:32;;;;;;;3.65;1.65;;;20.70;58.70;;;;;;5033292;28;20079;-74
2023/07/20 09:58:00;;;;;;;3.35;1.58;;;20.70;59.00;;;;;;5017080;28;20045;-74
2023/07/20 10:00:25;;;;;;;6.13;2.03;;;20.50;59.30;;;;;;5033270;28;20076;-75
2023/07/20 10:02:52;;;;;;;4.80;1.75;;;20.40;59.90;;;;;;5000525;28;20087;-75
2023/07/20 10:05:19;;;;;;;4.63;2.10;;;20.30;60.20;;;;;;5033221;28;20069;-75
2023/07/20 10:07:48;;;;;;;3.83;1.75;;;20.20;60.50;;;;;;5033105;28;20041;-75
2023/07/20 10:10:18;;;;;;;4.75;1.42;;;20.30;60.60;;;;;;5033076;28;20375;-75
2023/07/20 10:12:48;;;;;;;3.78;2.00;;;20.40;60.70;;;;;;5033105;28;20041;-75
2023/07/20 10:15:21;;;;;;;3.80;2.17;;;20.40;60.70;;;;;;5033347;28;20045;-75
2023/07/20 10:18:04;;;;;;;2.22;1.30;;;20.40;60.00;;;;;;5034969;28;20482;-75
2023/07/20 10:20:33;;;;;;;6.05;1.77;;;20.30;60.50;;;;;;5040512;28;20565;-75
2023/07/20 10:23:00;;;;;;;3.50;1.30;;;20.10;61.70;;;;;;5038396;28;20041;-75
2023/07/20 10:25:28;;;;;;;3.50;1.80;;;20.00;62.10;;;;;;5032370;28;20371;-75
2023/07/20 10:27:54;;;;;;;4.65;1.77;;;19.90;63.20;;;;;;5016564;28;20076;-75
2023/07/20 10:30:20;;;;;;;4.00;1.80;;;19.70;64.20;;;;;;5032611;28;20119;-75
2023/07/20 10:32:47;;;;;;;4.95;1.75;;;19.40;65.10;;;;;;5032566;28;20048;-74
2023/07/20 10:35:17;;;;;;;2.65;1.65;;;19.20;65.30;;;;;;5032943;28;20390;-74
2023/07/20 10:37:59;;;;;;;4.85;1.92;;;19.30;65.10;;;;;;5016057;28;20490;-75
2023/07/20 10:40:33;;;;;;;5.53;1.70;;;19.50;64.90;;;;;;5032242;28;20061;-75
2023/07/20 10:43:00;;;;;;;3.38;1.42;;;20.00;63.00;;;;;;5032473;28;20048;-75
2023/07/20 10:45:35;;;;;;;5.10;1.45;;;20.40;61.60;;;;;;5032406;28;20045;-75
2023/07/20 10:48:24;;;;;;;4.15;1.75;;;20.80;58.80;;;;;;5015934;28;20552;-75
2023/07/20 10:51:14;;;;;;;4.95;1.70;;;20.90;59.00;;;;;;5032274;28;20037;-75
2023/07/20 10:53:40;;;;;;;6.18;1.92;;;20.90;58.30;;;;;;5032592;28;20068;-75
2023/07/20 10:56:16;;;;;;;4.10;2.00;;;20.70;59.40;;;;;;5019055;28;20041;-75
2023/07/20 10:58:42;;;;;;;5.22;1.80;;;20.80;59.40;;;;;;5024631;28;20041;-75
2023/07/20 11:01:08;;;;;;;4.22;1.95;;;20.90;58.80;;;;;;5042424;28;20040;-73
2023/07/20 11:03:38;;;;;;;4.55;2.13;;;21.10;58.70;;;;;;5042955;28;20037;-75
2023/07/20 11:06:26;;;;;;;3.20;1.55;;;21.10;58.40;;;;;;5041554;28;20453;-74
2023/07/20 11:09:14;;;;;;;4.47;1.90;;;20.90;59.50;;;;;;5042802;28;20052;-75
2023/07/20 11:11:44;;;;;;;6.75;1.95;;;20.70;58.80;;;;;;5034522;28;20047;-74
2023/07/20 11:14:21;;;;;;;4.32;1.63;;;20.60;59.30;;;;;;5039882;28;20043;-75
2023/07/20 11:16:48;;;;;;;4.22;2.22;;;20.80;58.40;;;;;;5040341;28;20045;-75
2023/07/20 11:19:25;;;;;;;2.95;2.13;;;21.10;57.90;;;;;;5034341;28;20440;-74
2023/07/20 11:21:57;;;;;;;6.25;1.90;;;21.40;56.00;;;;;;5015481;28;20060;-74
2023/07/20 11:24:24;;;;;;;3.00;1.73;;;21.80;55.50;;;;;;5015418;28;20045;-74
2023/07/20 11:26:54;;;;;;;4.43;2.03;;;22.00;55.80;;;;;;5031671;28;20045;-74
2023/07/20 11:29:25;;;;;;;4.72;1.80;;;22.20;55.50;;;;;;5031586;28;20068;-75
2023/07/20 11:31:51;;;;;;;3.85;1.70;;;22.40;53.50;;;;;;5032008;28;20179;-75
2023/07/20 11:34:18;;;;;;;5.25;1.73;;;22.60;53.30;;;;;;5031681;28;20044;-76
2023/07/20 11:36:48;;;;;;;2.45;1.33;;;22.80;53.00;;;;;;5036965;28;20053;-75
2023/07/20 11:39:15;;;;;;;3.55;1.80;;;22.70;52.70;;;;;;5042130;28;20507;-75
2023/07/20 11:41:49;;;;;;;4.40;2.28;;;22.70;52.70;;;;;;5040503;28;20062;-75
2023/07/20 11:44:19;;;;;;;2.20;1.38;;;22.40;52.80;;;;;;5023625;28;20052;-76
2023/07/20 11:46:45;;;;;;;3.38;1.60;;;22.40;52.50;;;;;;5040693;28;20132;-76
2023/07/20 11:49:11;;;;;;;5.57;2.40;;;22.40;52.00;;;;;;5041987;28;20041;-76
2023/07/20 11:51:38;;;;;;;3.15;1.67;;;22.50;51.90;;;;;;5023718;28;20095;-76
2023/07/20 11:54:07;;;;;;;2.83;1.50;;;22.40;51.50;;;;;;5024457;28;20037;-77
2023/07/20 11:56:32;;;;;;;2.72;1.65;;;22.40;50.90;;;;;;5042092;28;20477;-76
2023/07/20 11:59:00;;;;;;;3.78;1.60;;;22.40;51.60;;;;;;5040297;28;20091;-76
2023/07/20 12:01:31;;;;;;;2.13;1.35;;;22.50;50.50;;;;;;5040330;28;20125;-76
2023/07/20 12:03:59;;;;;;;3.05;1.63;;;22.70;49.30;;;;;;5040426;28;20041;-76
2023/07/20 12:06:27;;;;;;;3.03;1.48;;;22.70;47.70;;;;;;5040685;28;20048;-75
2023/07/20 12:08:57;;;;;;;4.05;1.63;;;22.90;48.60;;;;;;5047753;28;20068;-76
2023/07/20 12:11:37;;;;;;;1.63;1.50;;;23.10;47.90;;;;;;5051636;28;20445;-76
2023/07/20 12:14:12;;;;;;;3.10;1.92;;;23.10;48.50;;;;;;5034570;28;20485;-76
2023/07/20 12:16:38;;;;;;;3.15;1.70;;;23.10;48.30;;;;;;5035397;28;20122;-76
2023/07/20 12:19:09;;;;;;;4.43;1.55;;;23.00;49.40;;;;;;5037640;28;20575;-76
2023/07/20 12:21:39;;;;;;;2.45;1.60;;;23.10;48.30;;;;;;5040016;28;20072;-76
2023/07/20 12:24:06;;;;;;;3.38;1.65;;;23.10;48.90;;;;;;5038739;28;20402;-76
2023/07/20 12:26:33;;;;;;;2.33;1.60;;;23.20;48.80;;;;;;5024261;28;20044;-76
2023/07/20 12:28:59;;;;;;;2.25;1.42;;;23.20;48.80;;;;;;5015218;28;20394;-77
2023/07/20 12:31:26;;;;;;;3.63;1.85;;;23.30;46.40;;;;;;5041816;28;20044;-76
2023/07/20 12:33:55;;;;;;;2.10;1.60;;;23.10;45.60;;;;;;5040393;28;20778;-76
2023/07/20 12:36:21;;;;;;;2.95;1.35;;;22.90;47.10;;;;;;5037802;28;20140;-76
2023/07/20 12:38:47;;;;;;;3.22;1.73;;;22.80;48.30;;;;;;5031510;28;20569;-76
2023/07/20 12:41:16;;;;;;;5.32;1.70;;;22.90;48.40;;;;;;5035112;28;20186;-76
2023/07/20 12:43:45;;;;;;;2.10;1.50;;;23.10;49.20;;;;;;5037119;28;20103;-76
2023/07/20 12:46:13;;;;;;;3.20;1.25;;;23.00;48.30;;;;;;5020687;28;20049;-76
2023/07/20 12:48:40;;;;;;;2.38;1.73;;;23.10;48.00;;;;;;5037706;28;20761;-76